Terminal Aerodrome Forecast
Issued by NWS

Home | Current Version | Previous Version | Text Only | Print | Product List | Glossary On
Versions: 1 2 3 4 5 6 7 8 9 10 11 12 13 14 15
180
FTUS41 KAKQ 241738
TAFPHF
TAF
KPHF 241738Z 2418/2518 16007KT P6SM SCT035
     FM242100 14008KT P6SM SCT045
     FM250100 14006KT P6SM SCT150
     FM250800 00000KT 2SM BR BKN010
     FM251400 18008KT P6SM SCT060=

USA.gov is the U.S. government's official web portal to all federal, state and local government web resources and services.